sensor_id;sensor_type;location;lat;lon;timestamp;P1;P2;P0
54553;PMS5003;40450;55.848;-3.572;2022-12-29T00:01:17;0;0;
54553;PMS5003;40450;55.848;-3.572;2022-12-29T00:03:47;3;1;
54553;PMS5003;40450;55.848;-3.572;2022-12-29T00:06:18;0;0;
54553;PMS5003;40450;55.848;-3.572;2022-12-29T00:08:48;0;0;
54553;PMS5003;40450;55.848;-3.572;2022-12-29T00:11:20;0;0;
54553;PMS5003;40450;55.848;-3.572;2022-12-29T00:13:49;0;0;
54553;PMS5003;40450;55.848;-3.572;2022-12-29T00:16:19;0;0;
54553;PMS5003;40450;55.848;-3.572;2022-12-29T00:18:50;0;0;
54553;PMS5003;40450;55.848;-3.572;2022-12-29T00:21:21;0;0;
54553;PMS5003;40450;55.848;-3.572;2022-12-29T00:23:50;0;0;
54553;PMS5003;40450;55.848;-3.572;2022-12-29T00:26:21;0;0;
54553;PMS5003;40450;55.848;-3.572;2022-12-29T00:28:52;0;0;
54553;PMS5003;40450;55.848;-3.572;2022-12-29T00:31:22;0;0;
54553;PMS5003;40450;55.848;-3.572;2022-12-29T00:33:53;0;0;
54553;PMS5003;40450;55.848;-3.572;2022-12-29T00:36:23;0;0;
54553;PMS5003;40450;55.848;-3.572;2022-12-29T00:38:54;0;0;
54553;PMS5003;40450;55.848;-3.572;2022-12-29T00:41:23;0;0;
54553;PMS5003;40450;55.848;-3.572;2022-12-29T00:43:54;0;0;
54553;PMS5003;40450;55.848;-3.572;2022-12-29T00:46:24;0;0;
54553;PMS5003;40450;55.848;-3.572;2022-12-29T00:48:55;0;0;
54553;PMS5003;40450;55.848;-3.572;2022-12-29T00:51:25;0;0;
54553;PMS5003;40450;55.848;-3.572;2022-12-29T00:53:56;0;0;
54553;PMS5003;40450;55.848;-3.572;2022-12-29T00:56:26;1;0;
54553;PMS5003;40450;55.848;-3.572;2022-12-29T00:58:59;0;0;
54553;PMS5003;40450;55.848;-3.572;2022-12-29T01:01:27;0;0;
54553;PMS5003;40450;55.848;-3.572;2022-12-29T01:03:57;0;0;
54553;PMS5003;40450;55.848;-3.572;2022-12-29T01:06:27;0;0;
54553;PMS5003;40450;55.848;-3.572;2022-12-29T01:08:58;0;0;
54553;PMS5003;40450;55.848;-3.572;2022-12-29T01:11:28;0;0;
54553;PMS5003;40450;55.848;-3.572;2022-12-29T01:13:59;0;0;
54553;PMS5003;40450;55.848;-3.572;2022-12-29T01:16:29;0;0;
54553;PMS5003;40450;55.848;-3.572;2022-12-29T01:18:59;0;0;
54553;PMS5003;40450;55.848;-3.572;2022-12-29T01:21:30;0;0;
54553;PMS5003;40450;55.848;-3.572;2022-12-29T01:24:00;0;0;
54553;PMS5003;40450;55.848;-3.572;2022-12-29T01:26:31;0;0;
54553;PMS5003;40450;55.848;-3.572;2022-12-29T01:29:01;0;0;
54553;PMS5003;40450;55.848;-3.572;2022-12-29T01:31:31;0;0;
54553;PMS5003;40450;55.848;-3.572;2022-12-29T01:34:02;0;0;
54553;PMS5003;40450;55.848;-3.572;2022-12-29T01:36:32;0;0;
54553;PMS5003;40450;55.848;-3.572;2022-12-29T01:39:03;0;0;
54553;PMS5003;40450;55.848;-3.572;2022-12-29T01:41:33;0;0;
54553;PMS5003;40450;55.848;-3.572;2022-12-29T01:46:34;0;0;
54553;PMS5003;40450;55.848;-3.572;2022-12-29T01:49:14;0;0;
54553;PMS5003;40450;55.848;-3.572;2022-12-29T01:51:35;0;0;
54553;PMS5003;40450;55.848;-3.572;2022-12-29T01:54:07;0;0;
54553;PMS5003;40450;55.848;-3.572;2022-12-29T01:56:36;0;0;
54553;PMS5003;40450;55.848;-3.572;2022-12-29T01:59:08;0;0;
54553;PMS5003;40450;55.848;-3.572;2022-12-29T02:01:36;0;0;
54553;PMS5003;40450;55.848;-3.572;2022-12-29T02:04:07;0;0;
54553;PMS5003;40450;55.848;-3.572;2022-12-29T02:06:39;0;0;
54553;PMS5003;40450;55.848;-3.572;2022-12-29T02:09:08;0;0;
54553;PMS5003;40450;55.848;-3.572;2022-12-29T02:11:38;0;0;
54553;PMS5003;40450;55.848;-3.572;2022-12-29T02:14:09;1;0;
54553;PMS5003;40450;55.848;-3.572;2022-12-29T02:16:42;1;0;
54553;PMS5003;40450;55.848;-3.572;2022-12-29T02:21:45;0;0;
54553;PMS5003;40450;55.848;-3.572;2022-12-29T02:24:15;0;0;
54553;PMS5003;40450;55.848;-3.572;2022-12-29T02:26:45;1;0;
54553;PMS5003;40450;55.848;-3.572;2022-12-29T02:29:17;0;0;
54553;PMS5003;40450;55.848;-3.572;2022-12-29T02:31:42;0;0;
54553;PMS5003;40450;55.848;-3.572;2022-12-29T02:34:15;0;0;
54553;PMS5003;40450;55.848;-3.572;2022-12-29T02:36:43;0;0;
54553;PMS5003;40450;55.848;-3.572;2022-12-29T02:39:15;0;0;
54553;PMS5003;40450;55.848;-3.572;2022-12-29T02:41:45;0;0;
54553;PMS5003;40450;55.848;-3.572;2022-12-29T02:44:14;0;0;
54553;PMS5003;40450;55.848;-3.572;2022-12-29T02:46:45;0;0;
54553;PMS5003;40450;55.848;-3.572;2022-12-29T02:49:15;0;0;
54553;PMS5003;40450;55.848;-3.572;2022-12-29T02:51:46;0;0;
54553;PMS5003;40450;55.848;-3.572;2022-12-29T02:54:16;0;0;
54553;PMS5003;40450;55.848;-3.572;2022-12-29T02:56:46;0;0;
54553;PMS5003;40450;55.848;-3.572;2022-12-29T02:59:16;1;0;
54553;PMS5003;40450;55.848;-3.572;2022-12-29T03:01:53;0;0;
54553;PMS5003;40450;55.848;-3.572;2022-12-29T03:04:20;0;0;
54553;PMS5003;40450;55.848;-3.572;2022-12-29T03:06:50;0;0;
54553;PMS5003;40450;55.848;-3.572;2022-12-29T03:09:19;0;0;
54553;PMS5003;40450;55.848;-3.572;2022-12-29T03:11:50;0;0;
54553;PMS5003;40450;55.848;-3.572;2022-12-29T03:14:22;0;0;
54553;PMS5003;40450;55.848;-3.572;2022-12-29T03:16:49;0;0;
54553;PMS5003;40450;55.848;-3.572;2022-12-29T03:19:20;0;0;
54553;PMS5003;40450;55.848;-3.572;2022-12-29T03:21:51;0;0;
54553;PMS5003;40450;55.848;-3.572;2022-12-29T03:24:22;0;0;
54553;PMS5003;40450;55.848;-3.572;2022-12-29T03:26:51;0;0;
54553;PMS5003;40450;55.848;-3.572;2022-12-29T03:29:21;0;0;
54553;PMS5003;40450;55.848;-3.572;2022-12-29T03:31:51;0;0;
54553;PMS5003;40450;55.848;-3.572;2022-12-29T03:34:22;0;0;
54553;PMS5003;40450;55.848;-3.572;2022-12-29T03:36:53;0;0;
54553;PMS5003;40450;55.848;-3.572;2022-12-29T03:39:23;0;0;
54553;PMS5003;40450;55.848;-3.572;2022-12-29T03:41:54;3;1;
54553;PMS5003;40450;55.848;-3.572;2022-12-29T03:46:54;0;0;
54553;PMS5003;40450;55.848;-3.572;2022-12-29T03:49:24;0;0;
54553;PMS5003;40450;55.848;-3.572;2022-12-29T03:51:55;0;0;
54553;PMS5003;40450;55.848;-3.572;2022-12-29T03:54:25;2;2;
54553;PMS5003;40450;55.848;-3.572;2022-12-29T03:56:55;0;0;
54553;PMS5003;40450;55.848;-3.572;2022-12-29T03:59:26;0;0;
54553;PMS5003;40450;55.848;-3.572;2022-12-29T04:01:56;0;0;
54553;PMS5003;40450;55.848;-3.572;2022-12-29T04:04:27;1;1;
54553;PMS5003;40450;55.848;-3.572;2022-12-29T04:06:57;0;0;
54553;PMS5003;40450;55.848;-3.572;2022-12-29T04:09:33;0;0;
54553;PMS5003;40450;55.848;-3.572;2022-12-29T04:11:58;0;0;
54553;PMS5003;40450;55.848;-3.572;2022-12-29T04:16:59;2;0;
54553;PMS5003;40450;55.848;-3.572;2022-12-29T04:19:29;0;0;
54553;PMS5003;40450;55.848;-3.572;2022-12-29T04:21:59;0;0;
54553;PMS5003;40450;55.848;-3.572;2022-12-29T04:24:30;0;0;
54553;PMS5003;40450;55.848;-3.572;2022-12-29T04:27:00;0;0;
54553;PMS5003;40450;55.848;-3.572;2022-12-29T04:29:30;0;0;
54553;PMS5003;40450;55.848;-3.572;2022-12-29T04:32:01;0;0;
54553;PMS5003;40450;55.848;-3.572;2022-12-29T04:34:31;0;0;
54553;PMS5003;40450;55.848;-3.572;2022-12-29T04:37:02;0;0;
54553;PMS5003;40450;55.848;-3.572;2022-12-29T04:39:32;0;0;
54553;PMS5003;40450;55.848;-3.572;2022-12-29T04:42:03;0;0;
54553;PMS5003;40450;55.848;-3.572;2022-12-29T04:44:33;0;0;
54553;PMS5003;40450;55.848;-3.572;2022-12-29T04:47:03;0;0;
54553;PMS5003;40450;55.848;-3.572;2022-12-29T04:49:34;0;0;
54553;PMS5003;40450;55.848;-3.572;2022-12-29T04:52:04;0;0;
54553;PMS5003;40450;55.848;-3.572;2022-12-29T04:54:34;0;0;
54553;PMS5003;40450;55.848;-3.572;2022-12-29T04:57:05;0;0;
54553;PMS5003;40450;55.848;-3.572;2022-12-29T04:59:35;0;0;
54553;PMS5003;40450;55.848;-3.572;2022-12-29T05:02:06;0;0;
54553;PMS5003;40450;55.848;-3.572;2022-12-29T05:04:36;0;0;
54553;PMS5003;40450;55.848;-3.572;2022-12-29T05:07:06;0;0;
54553;PMS5003;40450;55.848;-3.572;2022-12-29T05:09:37;0;0;
54553;PMS5003;40450;55.848;-3.572;2022-12-29T05:12:07;0;0;
54553;PMS5003;40450;55.848;-3.572;2022-12-29T05:14:37;0;0;
54553;PMS5003;40450;55.848;-3.572;2022-12-29T05:17:08;0;0;
54553;PMS5003;40450;55.848;-3.572;2022-12-29T05:19:38;0;0;
54553;PMS5003;40450;55.848;-3.572;2022-12-29T05:22:09;0;0;
54553;PMS5003;40450;55.848;-3.572;2022-12-29T05:24:39;1;0;
54553;PMS5003;40450;55.848;-3.572;2022-12-29T05:27:10;0;0;
54553;PMS5003;40450;55.848;-3.572;2022-12-29T05:29:40;0;0;
54553;PMS5003;40450;55.848;-3.572;2022-12-29T05:32:10;0;0;
54553;PMS5003;40450;55.848;-3.572;2022-12-29T05:34:41;1;1;
54553;PMS5003;40450;55.848;-3.572;2022-12-29T05:37:11;0;0;
54553;PMS5003;40450;55.848;-3.572;2022-12-29T05:39:42;0;0;
54553;PMS5003;40450;55.848;-3.572;2022-12-29T05:42:12;0;0;
54553;PMS5003;40450;55.848;-3.572;2022-12-29T05:44:42;0;0;
54553;PMS5003;40450;55.848;-3.572;2022-12-29T05:47:13;0;0;
54553;PMS5003;40450;55.848;-3.572;2022-12-29T05:49:43;0;0;
54553;PMS5003;40450;55.848;-3.572;2022-12-29T05:52:13;1;1;
54553;PMS5003;40450;55.848;-3.572;2022-12-29T05:54:44;0;0;
54553;PMS5003;40450;55.848;-3.572;2022-12-29T05:57:14;0;0;
54553;PMS5003;40450;55.848;-3.572;2022-12-29T05:59:45;0;0;
54553;PMS5003;40450;55.848;-3.572;2022-12-29T06:02:15;0;0;
54553;PMS5003;40450;55.848;-3.572;2022-12-29T06:04:46;0;0;
54553;PMS5003;40450;55.848;-3.572;2022-12-29T06:07:16;0;0;
54553;PMS5003;40450;55.848;-3.572;2022-12-29T06:09:46;0;0;
54553;PMS5003;40450;55.848;-3.572;2022-12-29T06:12:17;0;0;
54553;PMS5003;40450;55.848;-3.572;2022-12-29T06:14:47;0;0;
54553;PMS5003;40450;55.848;-3.572;2022-12-29T06:17:17;1;1;
54553;PMS5003;40450;55.848;-3.572;2022-12-29T06:19:48;0;0;
54553;PMS5003;40450;55.848;-3.572;2022-12-29T06:22:18;0;0;
54553;PMS5003;40450;55.848;-3.572;2022-12-29T06:24:49;0;0;
54553;PMS5003;40450;55.848;-3.572;2022-12-29T06:27:19;1;1;
54553;PMS5003;40450;55.848;-3.572;2022-12-29T06:29:49;0;0;
54553;PMS5003;40450;55.848;-3.572;2022-12-29T06:32:20;0;0;
54553;PMS5003;40450;55.848;-3.572;2022-12-29T06:34:50;0;0;
54553;PMS5003;40450;55.848;-3.572;2022-12-29T06:37:21;0;0;
54553;PMS5003;40450;55.848;-3.572;2022-12-29T06:39:51;1;1;
54553;PMS5003;40450;55.848;-3.572;2022-12-29T06:42:21;0;0;
54553;PMS5003;40450;55.848;-3.572;2022-12-29T06:44:52;0;0;
54553;PMS5003;40450;55.848;-3.572;2022-12-29T06:47:22;0;0;
54553;PMS5003;40450;55.848;-3.572;2022-12-29T06:49:53;1;1;
54553;PMS5003;40450;55.848;-3.572;2022-12-29T06:52:23;0;0;
54553;PMS5003;40450;55.848;-3.572;2022-12-29T06:54:53;0;0;
54553;PMS5003;40450;55.848;-3.572;2022-12-29T06:57:24;0;0;
54553;PMS5003;40450;55.848;-3.572;2022-12-29T06:59:54;0;0;
54553;PMS5003;40450;55.848;-3.572;2022-12-29T07:02:25;0;0;
54553;PMS5003;40450;55.848;-3.572;2022-12-29T07:05:01;0;0;
54553;PMS5003;40450;55.848;-3.572;2022-12-29T07:07:25;0;0;
54553;PMS5003;40450;55.848;-3.572;2022-12-29T07:09:56;0;0;
54553;PMS5003;40450;55.848;-3.572;2022-12-29T07:12:26;0;0;
54553;PMS5003;40450;55.848;-3.572;2022-12-29T07:14:57;0;0;
54553;PMS5003;40450;55.848;-3.572;2022-12-29T07:17:27;0;0;
54553;PMS5003;40450;55.848;-3.572;2022-12-29T07:19:57;0;0;
54553;PMS5003;40450;55.848;-3.572;2022-12-29T07:22:28;0;0;
54553;PMS5003;40450;55.848;-3.572;2022-12-29T07:24:58;0;0;
54553;PMS5003;40450;55.848;-3.572;2022-12-29T07:27:29;0;0;
54553;PMS5003;40450;55.848;-3.572;2022-12-29T07:29:59;1;0;
54553;PMS5003;40450;55.848;-3.572;2022-12-29T07:32:35;0;0;
54553;PMS5003;40450;55.848;-3.572;2022-12-29T07:35:00;0;0;
54553;PMS5003;40450;55.848;-3.572;2022-12-29T07:37:30;0;0;
54553;PMS5003;40450;55.848;-3.572;2022-12-29T07:40:01;0;0;
54553;PMS5003;40450;55.848;-3.572;2022-12-29T07:42:31;0;0;
54553;PMS5003;40450;55.848;-3.572;2022-12-29T07:45:02;0;0;
54553;PMS5003;40450;55.848;-3.572;2022-12-29T07:47:32;0;0;
54553;PMS5003;40450;55.848;-3.572;2022-12-29T07:50:03;0;0;
54553;PMS5003;40450;55.848;-3.572;2022-12-29T07:52:33;0;0;
54553;PMS5003;40450;55.848;-3.572;2022-12-29T07:55:04;0;0;
54553;PMS5003;40450;55.848;-3.572;2022-12-29T07:57:34;1;0;
54553;PMS5003;40450;55.848;-3.572;2022-12-29T08:00:05;0;0;
54553;PMS5003;40450;55.848;-3.572;2022-12-29T08:02:35;0;0;
54553;PMS5003;40450;55.848;-3.572;2022-12-29T08:05:05;0;0;
54553;PMS5003;40450;55.848;-3.572;2022-12-29T08:07:35;0;0;
54553;PMS5003;40450;55.848;-3.572;2022-12-29T08:10:06;0;0;
54553;PMS5003;40450;55.848;-3.572;2022-12-29T08:12:37;0;0;
54553;PMS5003;40450;55.848;-3.572;2022-12-29T08:15:08;0;0;
54553;PMS5003;40450;55.848;-3.572;2022-12-29T08:17:38;0;0;
54553;PMS5003;40450;55.848;-3.572;2022-12-29T08:20:08;0;0;
54553;PMS5003;40450;55.848;-3.572;2022-12-29T08:22:38;0;0;
54553;PMS5003;40450;55.848;-3.572;2022-12-29T08:25:08;0;0;
54553;PMS5003;40450;55.848;-3.572;2022-12-29T08:27:39;0;0;
54553;PMS5003;40450;55.848;-3.572;2022-12-29T08:30:10;0;0;
54553;PMS5003;40450;55.848;-3.572;2022-12-29T08:32:40;0;0;
54553;PMS5003;40450;55.848;-3.572;2022-12-29T08:35:10;0;0;
54553;PMS5003;40450;55.848;-3.572;2022-12-29T08:37:41;0;0;
54553;PMS5003;40450;55.848;-3.572;2022-12-29T08:40:11;0;0;
54553;PMS5003;40450;55.848;-3.572;2022-12-29T08:42:42;0;0;
54553;PMS5003;40450;55.848;-3.572;2022-12-29T08:45:12;0;0;
54553;PMS5003;40450;55.848;-3.572;2022-12-29T08:47:42;0;0;
54553;PMS5003;40450;55.848;-3.572;2022-12-29T08:50:13;0;0;
54553;PMS5003;40450;55.848;-3.572;2022-12-29T08:52:43;0;0;
54553;PMS5003;40450;55.848;-3.572;2022-12-29T08:55:14;0;0;
54553;PMS5003;40450;55.848;-3.572;2022-12-29T08:57:44;0;0;
54553;PMS5003;40450;55.848;-3.572;2022-12-29T09:00:15;0;0;
54553;PMS5003;40450;55.848;-3.572;2022-12-29T09:02:45;0;0;
54553;PMS5003;40450;55.848;-3.572;2022-12-29T09:05:15;0;0;
54553;PMS5003;40450;55.848;-3.572;2022-12-29T09:07:46;0;0;
54553;PMS5003;40450;55.848;-3.572;2022-12-29T09:10:16;0;0;
54553;PMS5003;40450;55.848;-3.572;2022-12-29T09:12:46;0;0;
54553;PMS5003;40450;55.848;-3.572;2022-12-29T09:15:17;0;0;
54553;PMS5003;40450;55.848;-3.572;2022-12-29T09:17:53;0;0;
54553;PMS5003;40450;55.848;-3.572;2022-12-29T09:20:19;0;0;
54553;PMS5003;40450;55.848;-3.572;2022-12-29T09:22:49;0;0;
54553;PMS5003;40450;55.848;-3.572;2022-12-29T09:25:19;0;0;
54553;PMS5003;40450;55.848;-3.572;2022-12-29T09:27:49;2;2;
54553;PMS5003;40450;55.848;-3.572;2022-12-29T09:30:20;0;0;
54553;PMS5003;40450;55.848;-3.572;2022-12-29T09:32:50;0;0;
54553;PMS5003;40450;55.848;-3.572;2022-12-29T09:35:20;0;0;
54553;PMS5003;40450;55.848;-3.572;2022-12-29T09:37:51;0;0;
54553;PMS5003;40450;55.848;-3.572;2022-12-29T09:40:23;1;1;
54553;PMS5003;40450;55.848;-3.572;2022-12-29T09:42:55;0;0;
54553;PMS5003;40450;55.848;-3.572;2022-12-29T09:45:24;0;0;
54553;PMS5003;40450;55.848;-3.572;2022-12-29T09:47:53;0;0;
54553;PMS5003;40450;55.848;-3.572;2022-12-29T09:50:23;0;0;
54553;PMS5003;40450;55.848;-3.572;2022-12-29T09:52:54;0;0;
54553;PMS5003;40450;55.848;-3.572;2022-12-29T09:55:25;1;1;
54553;PMS5003;40450;55.848;-3.572;2022-12-29T09:57:55;0;0;
54553;PMS5003;40450;55.848;-3.572;2022-12-29T10:00:36;1;1;
54553;PMS5003;40450;55.848;-3.572;2022-12-29T10:02:56;3;0;
54553;PMS5003;40450;55.848;-3.572;2022-12-29T10:05:27;1;1;
54553;PMS5003;40450;55.848;-3.572;2022-12-29T10:08:00;2;0;
54553;PMS5003;40450;55.848;-3.572;2022-12-29T10:10:29;4;1;
54553;PMS5003;40450;55.848;-3.572;2022-12-29T10:13:00;2;1;
54553;PMS5003;40450;55.848;-3.572;2022-12-29T10:15:31;3;1;
54553;PMS5003;40450;55.848;-3.572;2022-12-29T10:17:58;1;1;
54553;PMS5003;40450;55.848;-3.572;2022-12-29T10:20:28;2;2;
54553;PMS5003;40450;55.848;-3.572;2022-12-29T10:23:03;1;1;
54553;PMS5003;40450;55.848;-3.572;2022-12-29T10:25:30;3;2;
54553;PMS5003;40450;55.848;-3.572;2022-12-29T10:28:00;1;1;
54553;PMS5003;40450;55.848;-3.572;2022-12-29T10:30:30;2;2;
54553;PMS5003;40450;55.848;-3.572;2022-12-29T10:33:01;1;1;
54553;PMS5003;40450;55.848;-3.572;2022-12-29T10:35:32;3;2;
54553;PMS5003;40450;55.848;-3.572;2022-12-29T10:38:02;4;3;
54553;PMS5003;40450;55.848;-3.572;2022-12-29T10:40:32;2;2;
54553;PMS5003;40450;55.848;-3.572;2022-12-29T10:43:02;3;1;
54553;PMS5003;40450;55.848;-3.572;2022-12-29T10:45:32;1;1;
54553;PMS5003;40450;55.848;-3.572;2022-12-29T10:48:03;1;1;
54553;PMS5003;40450;55.848;-3.572;2022-12-29T10:50:34;5;2;
54553;PMS5003;40450;55.848;-3.572;2022-12-29T10:53:04;3;1;
54553;PMS5003;40450;55.848;-3.572;2022-12-29T10:55:37;5;2;
54553;PMS5003;40450;55.848;-3.572;2022-12-29T10:58:05;3;1;
54553;PMS5003;40450;55.848;-3.572;2022-12-29T11:00:35;2;2;
54553;PMS5003;40450;55.848;-3.572;2022-12-29T11:03:12;1;1;
54553;PMS5003;40450;55.848;-3.572;2022-12-29T11:05:36;1;1;
54553;PMS5003;40450;55.848;-3.572;2022-12-29T11:08:09;3;3;
54553;PMS5003;40450;55.848;-3.572;2022-12-29T11:10:38;5;5;
54553;PMS5003;40450;55.848;-3.572;2022-12-29T11:15:38;2;2;
54553;PMS5003;40450;55.848;-3.572;2022-12-29T11:20:38;5;4;
54553;PMS5003;40450;55.848;-3.572;2022-12-29T11:25:39;5;5;
54553;PMS5003;40450;55.848;-3.572;2022-12-29T11:28:13;6;4;
54553;PMS5003;40450;55.848;-3.572;2022-12-29T11:30:41;9;5;
54553;PMS5003;40450;55.848;-3.572;2022-12-29T11:33:11;6;6;
54553;PMS5003;40450;55.848;-3.572;2022-12-29T11:35:42;6;6;
54553;PMS5003;40450;55.848;-3.572;2022-12-29T11:38:17;5;5;
54553;PMS5003;40450;55.848;-3.572;2022-12-29T11:40:42;4;3;
54553;PMS5003;40450;55.848;-3.572;2022-12-29T11:43:17;1;1;
54553;PMS5003;40450;55.848;-3.572;2022-12-29T11:45:42;2;2;
54553;PMS5003;40450;55.848;-3.572;2022-12-29T11:48:14;5;5;
54553;PMS5003;40450;55.848;-3.572;2022-12-29T11:50:49;4;4;
54553;PMS5003;40450;55.848;-3.572;2022-12-29T11:53:15;5;4;
54553;PMS5003;40450;55.848;-3.572;2022-12-29T11:58:14;2;2;
54553;PMS5003;40450;55.848;-3.572;2022-12-29T12:00:44;1;1;
54553;PMS5003;40450;55.848;-3.572;2022-12-29T12:03:16;1;1;
54553;PMS5003;40450;55.848;-3.572;2022-12-29T12:05:50;2;2;
54553;PMS5003;40450;55.848;-3.572;2022-12-29T12:08:16;2;2;
54553;PMS5003;40450;55.848;-3.572;2022-12-29T12:10:46;1;1;
54553;PMS5003;40450;55.848;-3.572;2022-12-29T12:13:17;2;2;
54553;PMS5003;40450;55.848;-3.572;2022-12-29T12:15:47;3;2;
54553;PMS5003;40450;55.848;-3.572;2022-12-29T12:18:20;3;1;
54553;PMS5003;40450;55.848;-3.572;2022-12-29T12:20:49;1;1;
54553;PMS5003;40450;55.848;-3.572;2022-12-29T12:25:51;2;2;
54553;PMS5003;40450;55.848;-3.572;2022-12-29T12:28:19;2;2;
54553;PMS5003;40450;55.848;-3.572;2022-12-29T12:30:49;1;1;
54553;PMS5003;40450;55.848;-3.572;2022-12-29T12:33:24;2;2;
54553;PMS5003;40450;55.848;-3.572;2022-12-29T12:35:51;0;0;
54553;PMS5003;40450;55.848;-3.572;2022-12-29T12:38:21;2;1;
54553;PMS5003;40450;55.848;-3.572;2022-12-29T12:40:56;1;1;
54553;PMS5003;40450;55.848;-3.572;2022-12-29T12:43:26;1;1;
54553;PMS5003;40450;55.848;-3.572;2022-12-29T12:45:52;2;0;
54553;PMS5003;40450;55.848;-3.572;2022-12-29T12:48:28;1;1;
54553;PMS5003;40450;55.848;-3.572;2022-12-29T12:50:52;0;0;
54553;PMS5003;40450;55.848;-3.572;2022-12-29T12:53:27;3;1;
54553;PMS5003;40450;55.848;-3.572;2022-12-29T12:55:56;1;1;
54553;PMS5003;40450;55.848;-3.572;2022-12-29T12:58:25;2;2;
54553;PMS5003;40450;55.848;-3.572;2022-12-29T13:00:56;3;3;
54553;PMS5003;40450;55.848;-3.572;2022-12-29T13:03:27;1;1;
54553;PMS5003;40450;55.848;-3.572;2022-12-29T13:05:59;0;0;
54553;PMS5003;40450;55.848;-3.572;2022-12-29T13:08:29;2;2;
54553;PMS5003;40450;55.848;-3.572;2022-12-29T13:10:56;4;4;
54553;PMS5003;40450;55.848;-3.572;2022-12-29T13:13:32;1;1;
54553;PMS5003;40450;55.848;-3.572;2022-12-29T13:15:57;4;4;
54553;PMS5003;40450;55.848;-3.572;2022-12-29T13:18:27;1;1;
54553;PMS5003;40450;55.848;-3.572;2022-12-29T13:20:58;0;0;
54553;PMS5003;40450;55.848;-3.572;2022-12-29T13:23:29;5;5;
54553;PMS5003;40450;55.848;-3.572;2022-12-29T13:25:59;2;1;
54553;PMS5003;40450;55.848;-3.572;2022-12-29T13:28:29;0;0;
54553;PMS5003;40450;55.848;-3.572;2022-12-29T13:31:00;1;1;
54553;PMS5003;40450;55.848;-3.572;2022-12-29T13:33:32;0;0;
54553;PMS5003;40450;55.848;-3.572;2022-12-29T13:36:00;3;2;
54553;PMS5003;40450;55.848;-3.572;2022-12-29T13:38:32;1;1;
54553;PMS5003;40450;55.848;-3.572;2022-12-29T13:41:01;0;0;
54553;PMS5003;40450;55.848;-3.572;2022-12-29T13:43:31;1;1;
54553;PMS5003;40450;55.848;-3.572;2022-12-29T13:46:02;2;2;
54553;PMS5003;40450;55.848;-3.572;2022-12-29T13:48:35;0;0;
54553;PMS5003;40450;55.848;-3.572;2022-12-29T13:51:02;1;1;
54553;PMS5003;40450;55.848;-3.572;2022-12-29T13:53:34;1;1;
54553;PMS5003;40450;55.848;-3.572;2022-12-29T13:56:04;0;0;
54553;PMS5003;40450;55.848;-3.572;2022-12-29T13:58:34;0;0;
54553;PMS5003;40450;55.848;-3.572;2022-12-29T14:01:07;5;5;
54553;PMS5003;40450;55.848;-3.572;2022-12-29T14:06:10;5;4;
54553;PMS5003;40450;55.848;-3.572;2022-12-29T14:08:35;5;3;
54553;PMS5003;40450;55.848;-3.572;2022-12-29T14:11:07;2;2;
54553;PMS5003;40450;55.848;-3.572;2022-12-29T14:13:37;3;3;
54553;PMS5003;40450;55.848;-3.572;2022-12-29T14:16:06;1;1;
54553;PMS5003;40450;55.848;-3.572;2022-12-29T14:18:41;0;0;
54553;PMS5003;40450;55.848;-3.572;2022-12-29T14:21:09;2;0;
54553;PMS5003;40450;55.848;-3.572;2022-12-29T14:23:38;1;1;
54553;PMS5003;40450;55.848;-3.572;2022-12-29T14:26:10;1;1;
54553;PMS5003;40450;55.848;-3.572;2022-12-29T14:28:39;2;2;
54553;PMS5003;40450;55.848;-3.572;2022-12-29T14:33:39;1;1;
54553;PMS5003;40450;55.848;-3.572;2022-12-29T14:38:43;0;0;
54553;PMS5003;40450;55.848;-3.572;2022-12-29T14:43:41;0;0;
54553;PMS5003;40450;55.848;-3.572;2022-12-29T14:46:13;0;0;
54553;PMS5003;40450;55.848;-3.572;2022-12-29T14:48:42;0;0;
54553;PMS5003;40450;55.848;-3.572;2022-12-29T14:53:44;0;0;
54553;PMS5003;40450;55.848;-3.572;2022-12-29T14:56:13;0;0;
54553;PMS5003;40450;55.848;-3.572;2022-12-29T14:58:46;0;0;
54553;PMS5003;40450;55.848;-3.572;2022-12-29T15:01:17;1;1;
54553;PMS5003;40450;55.848;-3.572;2022-12-29T15:03:45;2;2;
54553;PMS5003;40450;55.848;-3.572;2022-12-29T15:06:15;3;2;
54553;PMS5003;40450;55.848;-3.572;2022-12-29T15:08:46;0;0;
54553;PMS5003;40450;55.848;-3.572;2022-12-29T15:11:17;0;0;
54553;PMS5003;40450;55.848;-3.572;2022-12-29T15:13:46;0;0;
54553;PMS5003;40450;55.848;-3.572;2022-12-29T15:16:21;0;0;
54553;PMS5003;40450;55.848;-3.572;2022-12-29T15:18:47;0;0;
54553;PMS5003;40450;55.848;-3.572;2022-12-29T15:21:18;0;0;
54553;PMS5003;40450;55.848;-3.572;2022-12-29T15:23:48;0;0;
54553;PMS5003;40450;55.848;-3.572;2022-12-29T15:26:18;0;0;
54553;PMS5003;40450;55.848;-3.572;2022-12-29T15:28:49;0;0;
54553;PMS5003;40450;55.848;-3.572;2022-12-29T15:31:20;0;0;
54553;PMS5003;40450;55.848;-3.572;2022-12-29T15:33:51;2;0;
54553;PMS5003;40450;55.848;-3.572;2022-12-29T15:36:21;0;0;
54553;PMS5003;40450;55.848;-3.572;2022-12-29T15:38:51;0;0;
54553;PMS5003;40450;55.848;-3.572;2022-12-29T15:41:25;0;0;
54553;PMS5003;40450;55.848;-3.572;2022-12-29T15:43:53;1;1;
54553;PMS5003;40450;55.848;-3.572;2022-12-29T15:46:22;1;1;
54553;PMS5003;40450;55.848;-3.572;2022-12-29T15:48:52;0;0;
54553;PMS5003;40450;55.848;-3.572;2022-12-29T15:51:24;1;0;
54553;PMS5003;40450;55.848;-3.572;2022-12-29T15:53:53;0;0;
54553;PMS5003;40450;55.848;-3.572;2022-12-29T15:56:24;0;0;
54553;PMS5003;40450;55.848;-3.572;2022-12-29T15:58:54;0;0;
54553;PMS5003;40450;55.848;-3.572;2022-12-29T16:01:26;0;0;
54553;PMS5003;40450;55.848;-3.572;2022-12-29T16:03:55;0;0;
54553;PMS5003;40450;55.848;-3.572;2022-12-29T16:06:28;0;0;
54553;PMS5003;40450;55.848;-3.572;2022-12-29T16:08:57;0;0;
54553;PMS5003;40450;55.848;-3.572;2022-12-29T16:11:27;0;0;
54553;PMS5003;40450;55.848;-3.572;2022-12-29T16:13:57;0;0;
54553;PMS5003;40450;55.848;-3.572;2022-12-29T16:16:28;0;0;
54553;PMS5003;40450;55.848;-3.572;2022-12-29T16:18:58;0;0;
54553;PMS5003;40450;55.848;-3.572;2022-12-29T16:21:29;0;0;
54553;PMS5003;40450;55.848;-3.572;2022-12-29T16:24:00;2;0;
54553;PMS5003;40450;55.848;-3.572;2022-12-29T16:26:29;1;1;
54553;PMS5003;40450;55.848;-3.572;2022-12-29T16:29:00;1;1;
54553;PMS5003;40450;55.848;-3.572;2022-12-29T16:31:33;0;0;
54553;PMS5003;40450;55.848;-3.572;2022-12-29T16:36:31;0;0;
54553;PMS5003;40450;55.848;-3.572;2022-12-29T16:41:32;0;0;
54553;PMS5003;40450;55.848;-3.572;2022-12-29T16:46:33;0;0;
54553;PMS5003;40450;55.848;-3.572;2022-12-29T16:49:03;1;1;
54553;PMS5003;40450;55.848;-3.572;2022-12-29T16:51:34;1;1;
54553;PMS5003;40450;55.848;-3.572;2022-12-29T16:54:04;0;0;
54553;PMS5003;40450;55.848;-3.572;2022-12-29T16:56:35;1;1;
54553;PMS5003;40450;55.848;-3.572;2022-12-29T16:59:06;0;0;
54553;PMS5003;40450;55.848;-3.572;2022-12-29T17:01:36;3;3;
54553;PMS5003;40450;55.848;-3.572;2022-12-29T17:04:07;2;1;
54553;PMS5003;40450;55.848;-3.572;2022-12-29T17:06:37;0;0;
54553;PMS5003;40450;55.848;-3.572;2022-12-29T17:11:38;0;0;
54553;PMS5003;40450;55.848;-3.572;2022-12-29T17:16:39;0;0;
54553;PMS5003;40450;55.848;-3.572;2022-12-29T17:19:10;0;0;
54553;PMS5003;40450;55.848;-3.572;2022-12-29T17:21:39;0;0;
54553;PMS5003;40450;55.848;-3.572;2022-12-29T17:24:11;2;2;
54553;PMS5003;40450;55.848;-3.572;2022-12-29T17:26:40;0;0;
54553;PMS5003;40450;55.848;-3.572;2022-12-29T17:29:12;1;1;
54553;PMS5003;40450;55.848;-3.572;2022-12-29T17:31:41;1;1;
54553;PMS5003;40450;55.848;-3.572;2022-12-29T17:34:12;2;1;
54553;PMS5003;40450;55.848;-3.572;2022-12-29T17:36:42;1;1;
54553;PMS5003;40450;55.848;-3.572;2022-12-29T17:39:12;1;1;
54553;PMS5003;40450;55.848;-3.572;2022-12-29T17:41:43;0;0;